首页
METAR-TAF:

METAR-TAF

机场 :

温尼伯, 曼尼托巴, 加拿大

温尼伯詹姆斯·阿姆斯特朗·理查森国际机场

纬度: 49-54N, 经度: 097-14W, 海拔: 239米

当前天气观测

该预报发布于38分钟前的23:14 UTC
风速11节,风向南转南东
温度 -5°C
湿度 79%
气压 1003 hPa
能見度: 12.9公里
少量云层高于1300英尺
阴天层高于26000英尺

METAR: CYWG 182314Z 16011KT 8SM FEW013 OVC260 M05/M08 A2963 RMK SC2CI6 PRESFR SLP051

时间: 17:52 (23:52 UTC)

预报

该预报发布于10分钟前的23:42 UTC
预报有效从19日的 00点(UTC)到 19日的 24点(UTC)
风速12节,风向
能見度: 10公里
多云层高于1200英尺
阴天层高于26000英尺
短暂存在
从 19日的 00点(UTC)到 19日的 01点(UTC)
散云层高于1200英尺
阴天层高于26000英尺
从 19日的 0100点(UTC)
风速12节,风向
能見度: 10公里
少量云层高于1200英尺
阴天层高于26000英尺
短暂存在
从 19日的 01点(UTC)到 19日的 02点(UTC)
多云层高于1200英尺
阴天层高于26000英尺
成为
从 19日的 07点(UTC)到 19日的 09点(UTC)
风速15节,风向西转西南
从 19日的 1000点(UTC)
风速15节,风向西
能見度: 10公里
多云层高于12000英尺
从 19日的 1800点(UTC)
风速18节,风向西,有时为28节阵风
能見度: 10公里
少量云层高于16000英尺

TAF: CYWG 182342Z 1900/1924 18012KT P6SM BKN012 OVC260 TEMPO 1900/1901 SCT012 OVC260 FM190100 18012KT P6SM FEW012 OVC260 TEMPO 1901/1902 BKN012 OVC260 BECMG 1907/1909 24015KT FM191000 26015KT P6SM BKN120 FM191800 28018G28KT P6SM FEW160 RMK NXT FCST BY 190600Z

超过4000个机场的气象观测和天气预报(METAR&TAF报告)。

可查询的气象台以黄色和红色小点在地图上表示。

将鼠标移到小点上方,可查看气象台名称。

然后点击查看天气观测和预报。

如需切换地图:点击带黑十字的绿色按钮放大地图;点击带横线的绿色按钮缩小地图;或者点击绿色箭头查看邻近地区的地图。


METAR-TAF: